Currently 84°F in Simi Valley, California, USA
84°F
84°F / 62°F
11 mph SW
0.00"
Friday, July 21, 2017 1:49 PM PDT

Simi Valley, California Weather Summary
Last 36 Hours

Temperature Winds Hourly Humidity Dewpoint
Time Report Norm Report Norm Max Gusts Precip. Rpt. Norm Rpt. Norm Pressure
1Fri 01:49 PM  83.9°F  85°F  11 mph SW  7 mph  15 mph  0.00"  45%  43%  60°F  59°F  29.91"
2Fri 01:35 PM  84.5°F  85°F  12 mph SW  7 mph  17 mph  ----  44%  43%  60°F  59°F  29.92"
Fri 01:00 PM  83.6°F  85°F  5 mph W  6 mph  12 mph  0.00"  45%  43%  59°F  59°F  29.92"
Fri 12:00 PM  81.8°F  83°F  4 mph W  5 mph  11 mph  0.00"  46%  45%  58°F  59°F  29.93"
Fri 11:00 AM  78.2°F  81°F  6 mph W  4 mph  11 mph  0.00"  51%  49%  58°F  59°F  29.94"
Fri 10:00 AM  74.2°F  76°F  6 mph W  3 mph  7 mph  0.00"  57%  57%  57°F  59°F  29.94"
Fri 09:00 AM  69.5°F  71°F  3 mph SW  2 mph  6 mph  0.00"  64%  66%  56°F  59°F  29.95"
Fri 08:00 AM  66.7°F  66°F  calm  1 mph  2 mph  0.00"  65%  73%  54°F  57°F  29.94"
Fri 07:00 AM  61.9°F  62°F  2 mph N  1 mph  5 mph  0.00"  68%  77%  51°F  54°F  29.93"
3Fri 06:02 AM  61.5°F  61°F  3 mph NW  1 mph  7 mph  ----  67%  76%  50°F  53°F  29.92"
Fri 06:00 AM  61.5°F  61°F  2 mph S  1 mph  7 mph  0.00"  67%  76%  50°F  53°F  29.91"
Fri 05:00 AM  63.1°F  62°F  3 mph NW  1 mph  7 mph  0.00"  65%  74%  51°F  53°F  29.90"
Fri 04:00 AM  63.4°F  63°F  5 mph N  1 mph  6 mph  0.00"  64%  73%  51°F  54°F  29.89"
Fri 03:00 AM  64.3°F  64°F  3 mph N  1 mph  5 mph  0.00"  61%  71%  50°F  54°F  29.90"
Fri 02:00 AM  65.6°F  64°F  3 mph NW  1 mph  6 mph  0.00"  59%  70%  50°F  54°F  29.91"
Fri 01:00 AM  67.4°F  65°F  4 mph NW  1 mph  7 mph  0.00"  57%  69%  51°F  55°F  29.91"
Fri 12:00 AM  68.2°F  67°F  4 mph N  2 mph  7 mph  0.00"  56%  68%  51°F  55°F  29.92"
Thu 11:00 PM  69.8°F  68°F  4 mph N  2 mph  7 mph  0.00"  55%  68%  52°F  56°F  29.93"
Thu 10:00 PM  72.2°F  70°F  4 mph N  1 mph  4 mph  0.00"  53%  66%  54°F  58°F  29.93"
Thu 09:00 PM  74.7°F  72°F  3 mph NW  2 mph  6 mph  0.00"  50%  64%  54°F  58°F  29.93"
Thu 08:00 PM  77.5°F  74°F  5 mph W  3 mph  10 mph  0.00"  46%  59%  54°F  59°F  29.92"
Thu 07:00 PM  81.3°F  79°F  6 mph SW  5 mph  12 mph  0.00"  41%  52%  55°F  59°F  29.91"
Thu 06:00 PM  83.7°F  81°F  6 mph W  6 mph  13 mph  0.00"  39%  48%  55°F  59°F  29.90"
Thu 05:00 PM  84.6°F  83°F  7 mph SW  6 mph  18 mph  0.00"  41%  46%  58°F  59°F  29.90"
Thu 04:00 PM  85.4°F  84°F  10 mph W  7 mph  19 mph  0.00"  43%  44%  59°F  59°F  29.92"
Thu 03:00 PM  86.2°F  85°F  9 mph W  7 mph  18 mph  0.00"  43%  43%  61°F  59°F  29.94"
Thu 02:00 PM  87.1°F  85°F  9 mph W  8 mph  15 mph  0.00"  42%  43%  61°F  59°F  29.94"
Thu 01:00 PM  86.9°F  85°F  8 mph W  7 mph  12 mph  0.00"  40%  43%  59°F  59°F  29.96"
Thu 12:00 PM  85.2°F  83°F  5 mph W  5 mph  12 mph  0.00"  43%  45%  59°F  59°F  29.98"
Thu 11:00 AM  82.3°F  80°F  4 mph E  4 mph  12 mph  0.00"  47%  50%  60°F  59°F  29.99"
Thu 10:00 AM  76.7°F  76°F  2 mph W  3 mph  10 mph  0.00"  58%  58%  60°F  59°F  29.99"
Thu 09:00 AM  71.6°F  71°F  calm  2 mph  4 mph  0.00"  65%  67%  59°F  59°F  29.98"
Thu 08:00 AM  66.4°F  66°F  calm  1 mph  none  0.00"  68%  74%  55°F  57°F  29.99"
Thu 07:00 AM  62.8°F  62°F  calm  1 mph  6 mph  0.00"  67%  77%  51°F  54°F  29.98"
Thu 06:00 AM  62.9°F  61°F  2 mph NW  1 mph  8 mph  0.00"  65%  76%  51°F  53°F  29.97"
Thu 05:00 AM  63.8°F  62°F  4 mph NW  1 mph  8 mph  0.00"  64%  74%  51°F  53°F  29.95"
Thu 04:00 AM  65.2°F  63°F  3 mph NW  1 mph  6 mph  0.00"  62%  74%  51°F  54°F  29.94"
Thu 03:00 AM  66.4°F  63°F  5 mph W  1 mph  5 mph  0.00"  61%  72%  52°F  54°F  29.94"
Thu 02:00 AM  67.8°F  64°F  4 mph W  1 mph  8 mph  0.00"  59%  71%  53°F  54°F  29.94"

  1. Current weather data. No green row appears if the current weather data is also the high or low for the current day.
  2. High temperature for the current day.
  3. Low temperature for the current day.

The Simi Valley, California weather pages are a service of WeatherCurrents.
Copyright ©Fri Jul 21 13:50:33 PDT 2017  WeatherCurrents. All rights reserved. - Submit questions and comments - Privacy Policy

This page automatically refreshes every 10 minutes.